createdAt,value
2018-12-21T00:00:35.272Z,7.30
2018-12-21T00:03:03.429Z,7.30
2018-12-21T00:05:31.575Z,7.40
2018-12-21T00:08:28.756Z,7.30
2018-12-21T00:10:56.875Z,7.30
2018-12-21T00:13:25.019Z,7.30
2018-12-21T00:15:53.097Z,7.30
2018-12-21T00:18:21.299Z,7.40
2018-12-21T00:20:49.402Z,7.30
2018-12-21T00:23:17.559Z,7.30
2018-12-21T00:25:58.314Z,7.30
2018-12-21T00:28:38.811Z,7.30
2018-12-21T00:31:12.421Z,7.30
2018-12-21T00:33:46.198Z,7.30
2018-12-21T00:36:19.886Z,7.30
2018-12-21T00:38:53.585Z,7.30
2018-12-21T00:41:51.092Z,7.20
2018-12-21T00:44:28.896Z,7.30
2018-12-21T00:47:00.866Z,7.30
2018-12-21T00:49:29.141Z,7.30
2018-12-21T00:51:57.268Z,7.30
2018-12-21T00:54:25.496Z,7.30
2018-12-21T00:56:53.730Z,7.30
2018-12-21T00:59:21.858Z,7.30
2018-12-21T01:01:49.948Z,7.30
2018-12-21T01:04:18.138Z,7.30
2018-12-21T01:06:46.395Z,7.30
2018-12-21T01:09:14.717Z,7.30
2018-12-21T01:11:43.202Z,7.40
2018-12-21T01:14:11.347Z,7.30
2018-12-21T01:16:39.463Z,7.40
2018-12-21T01:19:07.692Z,7.30
2018-12-21T01:21:38.966Z,7.30
2018-12-21T01:24:05.932Z,7.30
2018-12-21T01:26:34.108Z,7.30
2018-12-21T01:29:02.380Z,7.30
2018-12-21T01:31:40.106Z,7.30
2018-12-21T01:34:08.959Z,7.30
2018-12-21T01:36:37.035Z,7.30
2018-12-21T01:39:06.728Z,7.30
2018-12-21T01:42:04.536Z,7.40
2018-12-21T01:44:32.576Z,7.30
2018-12-21T01:47:00.640Z,7.30
2018-12-21T01:49:28.773Z,7.30
2018-12-21T01:51:57.197Z,7.30
2018-12-21T01:54:25.315Z,6.60
2018-12-21T01:56:53.548Z,7.30
2018-12-21T01:59:21.550Z,7.30
2018-12-21T02:01:49.636Z,7.30
2018-12-21T02:04:17.710Z,7.30
2018-12-21T02:06:45.731Z,7.30
2018-12-21T02:09:13.810Z,7.30
2018-12-21T02:11:42.092Z,7.30
2018-12-21T02:17:09.967Z,7.40
2018-12-21T02:19:47.459Z,6.90
2018-12-21T02:22:15.547Z,7.40
2018-12-21T02:24:43.680Z,7.40
2018-12-21T02:27:11.842Z,7.40
2018-12-21T02:30:09.114Z,7.40
2018-12-21T02:32:37.743Z,7.40
2018-12-21T02:35:06.406Z,7.40
2018-12-21T02:37:34.512Z,7.40
2018-12-21T02:40:02.763Z,7.40
2018-12-21T02:42:30.911Z,7.50
2018-12-21T02:44:59.021Z,7.40
2018-12-21T02:47:27.083Z,7.40
2018-12-21T02:50:00.297Z,7.50
2018-12-21T02:52:28.375Z,7.40
2018-12-21T02:54:56.563Z,7.50
2018-12-21T02:57:24.689Z,7.40
2018-12-21T02:59:52.828Z,7.40
2018-12-21T03:02:20.975Z,7.40
2018-12-21T03:04:49.129Z,7.40
2018-12-21T03:07:17.248Z,7.30
2018-12-21T03:09:45.560Z,7.30
2018-12-21T03:12:13.672Z,7.30
2018-12-21T03:14:41.785Z,7.30
2018-12-21T03:17:09.923Z,7.40
2018-12-21T03:19:58.508Z,7.40
2018-12-21T03:22:26.650Z,7.40
2018-12-21T03:24:54.755Z,7.20
2018-12-21T03:27:23.149Z,7.40
2018-12-21T03:29:51.218Z,7.40
2018-12-21T03:32:19.411Z,7.30
2018-12-21T03:34:47.521Z,7.40
2018-12-21T03:37:15.963Z,7.40
2018-12-21T03:39:44.032Z,7.40
2018-12-21T03:42:12.061Z,7.40
2018-12-21T03:44:40.173Z,7.40
2018-12-21T03:47:08.305Z,7.40
2018-12-21T03:49:36.401Z,7.40
2018-12-21T03:52:04.477Z,7.30
2018-12-21T03:54:32.586Z,7.30
2018-12-21T03:57:00.772Z,7.30
2018-12-21T03:59:28.831Z,7.40
2018-12-21T04:01:56.924Z,7.40
2018-12-21T04:04:24.958Z,7.40
2018-12-21T04:06:53.146Z,7.40
2018-12-21T04:09:21.371Z,7.40
2018-12-21T04:11:49.459Z,7.40
2018-12-21T04:14:17.461Z,7.40
2018-12-21T04:16:45.553Z,7.40
2018-12-21T04:19:26.729Z,7.40
2018-12-21T04:21:54.954Z,7.40
2018-12-21T04:24:23.156Z,7.40
2018-12-21T04:26:51.269Z,6.80
2018-12-21T04:29:25.265Z,7.40
2018-12-21T04:31:53.328Z,7.30
2018-12-21T04:34:28.439Z,7.40
2018-12-21T04:37:19.152Z,7.30
2018-12-21T04:39:52.271Z,7.30
2018-12-21T04:42:23.950Z,7.30
2018-12-21T04:44:52.079Z,7.20
2018-12-21T04:47:20.141Z,7.20
2018-12-21T04:49:48.444Z,7.20
2018-12-21T04:52:16.567Z,6.90
2018-12-21T04:54:44.642Z,7.20
2018-12-21T04:57:12.777Z,7.30
2018-12-21T04:59:41.118Z,7.30
2018-12-21T05:02:09.410Z,6.70
2018-12-21T05:04:37.614Z,7.30
2018-12-21T05:10:32.892Z,7.30
2018-12-21T05:13:00.963Z,7.30
2018-12-21T05:15:29.140Z,7.40
2018-12-21T05:17:57.824Z,7.40
2018-12-21T05:20:31.154Z,7.50
2018-12-21T05:22:59.243Z,7.40
2018-12-21T05:25:27.408Z,7.40
2018-12-21T05:27:59.044Z,7.40
2018-12-21T05:30:27.218Z,7.40
2018-12-21T05:33:01.846Z,7.50
2018-12-21T05:35:29.942Z,7.50
2018-12-21T05:37:58.139Z,7.50
2018-12-21T05:40:35.694Z,7.50
2018-12-21T05:43:09.881Z,7.50
2018-12-21T05:45:38.016Z,7.40
2018-12-21T05:48:09.213Z,7.50
2018-12-21T05:50:40.976Z,7.50
2018-12-21T05:53:12.912Z,7.40
2018-12-21T05:55:44.872Z,7.40
2018-12-21T05:58:18.646Z,7.40
2018-12-21T06:00:52.476Z,7.40
2018-12-21T06:03:24.015Z,7.40
2018-12-21T06:05:58.208Z,7.40
2018-12-21T06:08:32.173Z,7.40
2018-12-21T06:11:09.993Z,7.50
2018-12-21T06:13:44.911Z,7.40
2018-12-21T06:16:17.135Z,7.40
2018-12-21T06:18:51.571Z,7.40
2018-12-21T06:21:25.266Z,7.40
2018-12-21T06:23:54.915Z,7.40
2018-12-21T06:26:26.065Z,7.40
2018-12-21T06:28:58.063Z,7.50
2018-12-21T06:31:29.948Z,7.50
2018-12-21T06:34:01.396Z,7.50
2018-12-21T06:36:37.692Z,7.40
2018-12-21T06:39:07.413Z,7.50
2018-12-21T06:41:41.730Z,7.50
2018-12-21T06:44:12.827Z,7.40
2018-12-21T06:46:47.112Z,7.30
2018-12-21T06:49:18.426Z,7.40
2018-12-21T06:51:52.723Z,7.30
2018-12-21T06:54:26.691Z,7.20
2018-12-21T06:56:58.536Z,7.30
2018-12-21T06:59:32.443Z,7.20
2018-12-21T07:02:04.119Z,7.20
2018-12-21T07:04:38.607Z,7.10
2018-12-21T07:07:12.905Z,7.00
2018-12-21T07:09:46.756Z,6.90
2018-12-21T07:12:18.405Z,6.90
2018-12-21T07:14:50.462Z,6.80
2018-12-21T07:17:19.678Z,6.80
2018-12-21T07:19:54.050Z,6.80
2018-12-21T07:22:33.515Z,6.80
2018-12-21T07:25:13.217Z,6.80
2018-12-21T07:27:47.286Z,6.70
2018-12-21T07:30:25.024Z,6.70
2018-12-21T07:33:03.905Z,6.70
2018-12-21T07:35:40.459Z,6.70
2018-12-21T07:38:16.168Z,6.70
2018-12-21T07:40:47.482Z,6.70
2018-12-21T07:43:16.654Z,6.70
2018-12-21T07:45:48.357Z,6.20
2018-12-21T07:48:20.015Z,6.60
2018-12-21T07:50:55.593Z,6.60
2018-12-21T07:53:35.683Z,6.60
2018-12-21T07:56:03.815Z,6.60
2018-12-21T07:58:37.963Z,6.60
2018-12-21T08:01:09.610Z,6.60
2018-12-21T08:03:41.331Z,6.60
2018-12-21T08:06:16.054Z,6.60
2018-12-21T08:08:52.474Z,6.60
2018-12-21T08:11:26.810Z,6.60
2018-12-21T08:14:01.439Z,6.60
2018-12-21T08:16:33.340Z,6.60
2018-12-21T08:19:07.059Z,6.50
2018-12-21T08:21:42.013Z,6.70
2018-12-21T08:24:14.589Z,6.70
2018-12-21T08:26:47.332Z,6.70
2018-12-21T08:29:21.677Z,6.70
2018-12-21T08:31:51.784Z,6.70
2018-12-21T08:34:25.760Z,6.70
2018-12-21T08:37:00.688Z,6.80
2018-12-21T08:39:32.538Z,6.80
2018-12-21T08:42:04.646Z,6.80
2018-12-21T08:44:37.118Z,6.90
2018-12-21T08:47:17.872Z,6.90
2018-12-21T08:49:49.755Z,7.00
2018-12-21T08:52:24.197Z,7.00
2018-12-21T08:54:55.634Z,7.10
2018-12-21T08:57:26.871Z,7.10
2018-12-21T09:00:01.337Z,7.10
2018-12-21T09:02:35.266Z,7.20
2018-12-21T09:05:09.190Z,7.20
2018-12-21T09:07:40.881Z,7.30
2018-12-21T09:10:10.203Z,7.30
2018-12-21T09:12:41.387Z,7.30
2018-12-21T09:15:17.983Z,7.30
2018-12-21T09:17:52.468Z,7.40
2018-12-21T09:20:27.175Z,7.40
2018-12-21T09:23:01.437Z,7.30
2018-12-21T09:25:35.257Z,7.30
2018-12-21T09:28:09.130Z,7.30
2018-12-21T09:30:43.010Z,7.40
2018-12-21T09:33:17.036Z,7.30
2018-12-21T09:35:49.032Z,7.40
2018-12-21T09:38:20.363Z,7.40
2018-12-21T09:40:51.717Z,7.30
2018-12-21T09:43:23.559Z,7.40
2018-12-21T09:45:54.694Z,7.40
2018-12-21T09:48:26.716Z,7.50
2018-12-21T09:51:01.276Z,7.50
2018-12-21T09:53:34.975Z,7.60
2018-12-21T09:56:08.644Z,7.50
2018-12-21T09:58:38.460Z,7.50
2018-12-21T10:01:09.953Z,7.50
2018-12-21T10:03:41.921Z,7.50
2018-12-21T10:06:13.736Z,7.50
2018-12-21T10:08:56.117Z,7.50
2018-12-21T10:11:27.848Z,7.50
2018-12-21T10:14:01.979Z,7.50
2018-12-21T10:16:35.589Z,7.50
2018-12-21T10:19:07.810Z,7.50
2018-12-21T10:21:42.050Z,7.50
2018-12-21T10:24:18.262Z,7.50
2018-12-21T10:26:46.173Z,7.50
2018-12-21T10:29:18.307Z,7.60
2018-12-21T10:31:50.424Z,7.60
2018-12-21T10:34:24.078Z,7.60
2018-12-21T10:36:58.175Z,7.60
2018-12-21T10:39:29.782Z,7.50
2018-12-21T10:42:01.659Z,7.50
2018-12-21T10:44:32.835Z,7.60
2018-12-21T10:47:07.191Z,7.70
2018-12-21T10:49:39.037Z,7.70
2018-12-21T10:52:12.145Z,7.70
2018-12-21T10:54:54.083Z,7.80
2018-12-21T10:57:32.153Z,7.80
2018-12-21T11:00:10.921Z,7.90
2018-12-21T11:02:48.628Z,7.70
2018-12-21T11:05:21.096Z,7.80
2018-12-21T11:07:50.855Z,7.70
2018-12-21T11:10:22.808Z,7.80
2018-12-21T11:12:57.218Z,7.80
2018-12-21T11:15:30.529Z,7.70
2018-12-21T11:18:07.594Z,7.80
2018-12-21T11:20:40.875Z,7.80
2018-12-21T11:23:16.874Z,7.80
2018-12-21T11:25:51.155Z,7.80
2018-12-21T11:28:27.135Z,7.80
2018-12-21T11:31:01.591Z,7.90
2018-12-21T11:33:46.445Z,7.90
2018-12-21T11:36:21.053Z,7.90
2018-12-21T11:38:55.951Z,8.10
2018-12-21T11:41:31.355Z,8.00
2018-12-21T11:44:02.848Z,8.00
2018-12-21T11:46:36.027Z,8.00
2018-12-21T11:49:26.621Z,8.10
2018-12-21T11:51:58.354Z,8.00
2018-12-21T11:54:30.188Z,8.10
2018-12-21T11:57:01.992Z,8.10
2018-12-21T11:59:44.707Z,8.20
2018-12-21T12:02:19.325Z,8.20
2018-12-21T12:04:46.791Z,8.20
2018-12-21T12:07:14.917Z,8.30
2018-12-21T12:10:01.625Z,8.30
2018-12-21T12:12:46.019Z,8.40
2018-12-21T12:15:15.972Z,8.30
2018-12-21T12:17:50.513Z,8.40
2018-12-21T12:22:54.257Z,8.50
2018-12-21T12:25:23.457Z,8.50
2018-12-21T12:27:57.916Z,6.60
2018-12-21T12:30:29.980Z,8.60
2018-12-21T12:33:05.147Z,8.60
2018-12-21T12:35:36.827Z,8.70
2018-12-21T12:38:08.789Z,8.80
2018-12-21T12:40:38.811Z,8.90
2018-12-21T12:43:19.551Z,8.90
2018-12-21T12:45:49.297Z,9.00
2018-12-21T12:48:20.989Z,9.10
2018-12-21T12:51:01.781Z,9.20
2018-12-21T12:53:33.518Z,9.20
2018-12-21T12:56:05.200Z,9.30
2018-12-21T12:58:33.711Z,9.20
2018-12-21T13:01:01.834Z,9.40
2018-12-21T13:03:29.919Z,9.50
2018-12-21T13:05:57.975Z,9.50
2018-12-21T13:08:26.100Z,9.70
2018-12-21T13:10:54.196Z,9.80
2018-12-21T13:13:22.308Z,9.90
2018-12-21T13:15:50.452Z,10.00
2018-12-21T13:18:21.810Z,10.00
2018-12-21T13:20:55.739Z,10.10
2018-12-21T13:23:35.589Z,10.20
2018-12-21T13:26:07.648Z,10.30
2018-12-21T13:28:35.794Z,10.30
2018-12-21T13:31:09.428Z,10.30
2018-12-21T13:33:40.598Z,10.40
2018-12-21T13:36:08.706Z,10.40
2018-12-21T13:38:40.623Z,10.50
2018-12-21T13:41:12.800Z,10.50
2018-12-21T13:43:47.317Z,10.50
2018-12-21T13:46:21.036Z,10.50
2018-12-21T13:48:52.722Z,10.60
2018-12-21T13:51:20.875Z,10.60
2018-12-21T13:53:56.114Z,10.60
2018-12-21T13:56:25.993Z,10.60
2018-12-21T13:58:57.637Z,10.60
2018-12-21T14:01:29.828Z,10.70
2018-12-21T14:04:03.499Z,10.70
2018-12-21T14:06:31.752Z,10.80
2018-12-21T14:09:06.959Z,10.10
2018-12-21T14:11:41.449Z,10.80
2018-12-21T14:14:13.037Z,10.80
2018-12-21T14:16:47.550Z,10.80
2018-12-21T14:19:19.069Z,10.70
2018-12-21T14:21:50.182Z,10.80
2018-12-21T14:24:22.618Z,10.80
2018-12-21T14:26:55.359Z,10.80
2018-12-21T14:29:27.017Z,10.80
2018-12-21T14:32:00.935Z,10.90
2018-12-21T14:34:35.963Z,10.90
2018-12-21T14:37:09.996Z,10.80
2018-12-21T14:39:41.772Z,10.80
2018-12-21T14:42:13.887Z,10.70
2018-12-21T14:44:46.009Z,10.80
2018-12-21T14:47:17.188Z,10.80
2018-12-21T14:49:51.729Z,10.80
2018-12-21T14:52:26.007Z,10.70
2018-12-21T14:54:59.740Z,10.70
2018-12-21T14:57:31.545Z,10.60
2018-12-21T15:00:11.096Z,10.60
2018-12-21T15:02:43.116Z,10.60
2018-12-21T15:05:17.972Z,10.60
2018-12-21T15:07:49.612Z,10.60
2018-12-21T15:10:23.897Z,10.50
2018-12-21T15:12:55.405Z,10.50
2018-12-21T15:15:29.167Z,10.40
2018-12-21T15:18:05.605Z,10.50
2018-12-21T15:20:37.679Z,10.50
2018-12-21T15:23:09.459Z,10.50
2018-12-21T15:25:46.082Z,10.50
2018-12-21T15:28:17.234Z,10.60
2018-12-21T15:30:48.643Z,10.60
2018-12-21T15:33:22.359Z,10.60
2018-12-21T15:35:51.961Z,10.70
2018-12-21T15:38:23.833Z,11.00
2018-12-21T15:40:55.591Z,10.70
2018-12-21T15:43:27.613Z,9.20
2018-12-21T15:46:01.376Z,10.70
2018-12-21T15:48:32.961Z,10.80
2018-12-21T15:51:03.178Z,10.80
2018-12-21T15:53:35.167Z,10.90
2018-12-21T15:56:08.828Z,11.00
2018-12-21T15:58:40.554Z,11.10
2018-12-21T16:01:15.042Z,11.00
2018-12-21T16:03:47.109Z,11.20
2018-12-21T16:06:18.491Z,11.20
2018-12-21T16:08:50.630Z,11.20
2018-12-21T16:11:24.991Z,11.20
2018-12-21T16:13:56.834Z,11.40
2018-12-21T16:16:31.212Z,11.40
2018-12-21T16:19:05.855Z,11.50
2018-12-21T16:21:37.839Z,11.50
2018-12-21T16:24:12.348Z,11.50
2018-12-21T16:26:46.131Z,11.50
2018-12-21T16:29:17.609Z,11.50
2018-12-21T16:31:48.888Z,11.60
2018-12-21T16:34:18.936Z,11.60
2018-12-21T16:36:50.506Z,11.60
2018-12-21T16:39:22.536Z,11.60
2018-12-21T16:41:52.279Z,11.60
2018-12-21T16:44:26.533Z,11.90
2018-12-21T16:47:00.464Z,11.70
2018-12-21T16:49:32.135Z,11.70
2018-12-21T16:52:03.344Z,11.70
2018-12-21T16:54:35.355Z,11.70
2018-12-21T16:57:07.442Z,11.80
2018-12-21T16:59:43.296Z,11.80
2018-12-21T17:02:16.120Z,11.80
2018-12-21T17:04:47.341Z,11.80
2018-12-21T17:07:18.775Z,11.90
2018-12-21T17:09:49.077Z,11.90
2018-12-21T17:12:20.984Z,11.80
2018-12-21T17:14:55.385Z,11.80
2018-12-21T17:17:26.912Z,11.90
2018-12-21T17:20:04.555Z,12.10
2018-12-21T17:22:35.824Z,12.00
2018-12-21T17:25:11.967Z,11.90
2018-12-21T17:27:43.636Z,12.00
2018-12-21T17:30:15.161Z,12.00
2018-12-21T17:32:47.987Z,12.10
2018-12-21T17:35:17.159Z,12.20
2018-12-21T17:37:51.668Z,12.10
2018-12-21T17:40:24.006Z,12.10
2018-12-21T17:42:57.922Z,12.10
2018-12-21T17:45:29.493Z,12.10
2018-12-21T17:48:04.944Z,12.00
2018-12-21T17:50:38.952Z,12.10
2018-12-21T17:53:10.760Z,12.10
2018-12-21T17:55:41.456Z,12.20
2018-12-21T17:58:13.005Z,12.10
2018-12-21T18:00:45.125Z,12.30
2018-12-21T18:03:26.255Z,12.20
2018-12-21T18:05:58.695Z,12.20
2018-12-21T18:08:32.506Z,12.30
2018-12-21T18:11:04.306Z,12.30
2018-12-21T18:13:36.436Z,12.30
2018-12-21T18:16:10.957Z,12.20
2018-12-21T18:18:45.480Z,12.30
2018-12-21T18:21:17.479Z,12.30
2018-12-21T18:23:49.026Z,12.20
2018-12-21T18:26:21.714Z,12.30
2018-12-21T18:28:55.389Z,12.20
2018-12-21T18:31:36.699Z,12.30
2018-12-21T18:34:10.840Z,12.20
2018-12-21T18:36:42.793Z,12.20
2018-12-21T18:39:14.732Z,12.20
2018-12-21T18:41:49.795Z,12.30
2018-12-21T18:44:24.054Z,12.20
2018-12-21T18:46:55.756Z,12.20
2018-12-21T18:49:27.913Z,12.10
2018-12-21T18:51:59.915Z,12.10
2018-12-21T18:54:32.056Z,12.10
2018-12-21T18:57:10.761Z,12.10
2018-12-21T18:59:42.317Z,12.10
2018-12-21T19:02:13.526Z,12.10
2018-12-21T19:04:45.386Z,12.10
2018-12-21T19:07:16.710Z,12.10
2018-12-21T19:09:46.015Z,12.10
2018-12-21T19:12:19.638Z,12.60
2018-12-21T19:14:50.925Z,12.20
2018-12-21T19:17:23.087Z,12.20
2018-12-21T19:19:56.709Z,12.20
2018-12-21T19:22:28.552Z,12.10
2018-12-21T19:25:00.418Z,12.20
2018-12-21T19:27:32.432Z,12.10
2018-12-21T19:30:09.087Z,12.10
2018-12-21T19:32:43.637Z,12.10
2018-12-21T19:35:15.495Z,12.00
2018-12-21T19:40:46.287Z,12.00
2018-12-21T19:43:27.944Z,12.00
2018-12-21T19:45:56.044Z,11.90
2018-12-21T19:48:28.632Z,12.00
2018-12-21T19:51:01.384Z,12.10
2018-12-21T19:53:35.079Z,12.10
2018-12-21T19:56:24.360Z,12.00
2018-12-21T19:58:56.340Z,12.00
2018-12-21T20:01:30.051Z,12.10
2018-12-21T20:04:01.777Z,12.10
2018-12-21T20:06:33.259Z,12.10
2018-12-21T20:09:07.312Z,12.10
2018-12-21T20:11:37.689Z,12.20
2018-12-21T20:14:09.465Z,12.00
2018-12-21T20:16:43.867Z,12.20
2018-12-21T20:19:17.439Z,12.20
2018-12-21T20:21:50.709Z,12.20
2018-12-21T20:24:28.432Z,12.10
2018-12-21T20:27:13.575Z,12.30
2018-12-21T20:29:41.915Z,12.40
2018-12-21T20:32:13.954Z,12.40
2018-12-21T20:34:43.820Z,12.30
2018-12-21T20:37:15.599Z,12.30
2018-12-21T20:39:48.736Z,12.30
2018-12-21T20:42:26.457Z,12.40
2018-12-21T20:44:58.796Z,12.50
2018-12-21T20:47:32.390Z,12.40
2018-12-21T20:50:02.669Z,12.40
2018-12-21T20:52:37.208Z,12.30
2018-12-21T20:55:09.016Z,12.40
2018-12-21T20:57:42.626Z,12.40
2018-12-21T21:00:15.954Z,12.40
2018-12-21T21:02:47.573Z,12.40
2018-12-21T21:05:22.176Z,12.40
2018-12-21T21:11:05.941Z,12.30
2018-12-21T21:13:37.472Z,12.30
2018-12-21T21:16:09.576Z,12.20
2018-12-21T21:18:41.618Z,12.20
2018-12-21T21:21:13.078Z,12.30
2018-12-21T21:23:44.853Z,12.30
2018-12-21T21:26:16.803Z,12.40
2018-12-21T21:28:51.719Z,12.40
2018-12-21T21:31:27.519Z,12.40
2018-12-21T21:33:59.770Z,12.30
2018-12-21T21:36:34.242Z,12.30
2018-12-21T21:46:39.003Z,12.20
2018-12-21T21:49:08.703Z,12.20
2018-12-21T21:51:40.616Z,12.30
2018-12-21T21:54:12.490Z,12.30
2018-12-21T21:56:45.473Z,12.30
2018-12-21T21:59:16.821Z,12.30
2018-12-21T22:01:48.802Z,12.20
2018-12-21T22:04:23.289Z,12.20
2018-12-21T22:06:53.366Z,12.30
2018-12-21T22:09:27.761Z,12.30
2018-12-21T22:11:57.369Z,12.20
2018-12-21T22:14:29.278Z,14.10
2018-12-21T22:17:01.383Z,12.20
2018-12-21T22:19:35.928Z,12.30
2018-12-21T22:22:10.567Z,12.20
2018-12-21T22:24:42.542Z,12.20
2018-12-21T22:27:21.397Z,12.20
2018-12-21T22:29:52.960Z,12.20
2018-12-21T22:32:27.360Z,12.20
2018-12-21T22:35:01.289Z,12.10
2018-12-21T22:37:32.732Z,12.10
2018-12-21T22:40:06.923Z,12.10
2018-12-21T22:42:38.821Z,12.10
2018-12-21T22:45:10.947Z,12.10
2018-12-21T22:47:42.930Z,12.20
2018-12-21T22:50:17.408Z,12.20
2018-12-21T22:52:52.475Z,12.20
2018-12-21T22:55:22.238Z,12.20
2018-12-21T22:58:00.742Z,10.50
2018-12-21T23:00:37.969Z,12.20
2018-12-21T23:03:09.269Z,12.20
2018-12-21T23:05:39.342Z,12.20
2018-12-21T23:08:11.452Z,12.10
2018-12-21T23:10:42.642Z,12.10
2018-12-21T23:13:13.806Z,12.00
2018-12-21T23:15:45.580Z,12.00
2018-12-21T23:18:17.269Z,12.00
2018-12-21T23:20:50.880Z,12.00
2018-12-21T23:23:24.763Z,12.00
2018-12-21T23:25:59.188Z,12.00
2018-12-21T23:28:32.855Z,12.00
2018-12-21T23:31:04.728Z,12.00
2018-12-21T23:33:38.474Z,12.00
2018-12-21T23:36:10.086Z,11.90
2018-12-21T23:38:40.176Z,11.90
2018-12-21T23:41:12.334Z,12.50
2018-12-21T23:43:46.083Z,11.90
2018-12-21T23:46:18.888Z,12.00
2018-12-21T23:48:51.172Z,11.90
2018-12-21T23:51:22.648Z,11.90
2018-12-21T23:53:54.210Z,11.90
2018-12-21T23:56:26.061Z,11.80
2018-12-21T23:58:57.853Z,11.90
